sensor_id;sensor_type;location;lat;lon;timestamp;pressure;altitude;pressure_sealevel;temperature;humidity
65394;BME280;52002;49.760;6.512;2023-05-02T00:01:44;100294.64;;;8.90;71.07
65394;BME280;52002;49.760;6.512;2023-05-02T00:04:10;100292.98;;;8.87;71.02
65394;BME280;52002;49.760;6.512;2023-05-02T00:06:35;100295.82;;;8.84;70.99
65394;BME280;52002;49.760;6.512;2023-05-02T00:09:02;100297.59;;;8.79;71.16
65394;BME280;52002;49.760;6.512;2023-05-02T00:11:27;100295.29;;;8.77;71.35
65394;BME280;52002;49.760;6.512;2023-05-02T00:13:53;100298.15;;;8.75;71.38
65394;BME280;52002;49.760;6.512;2023-05-02T00:16:18;100301.51;;;8.72;71.55
65394;BME280;52002;49.760;6.512;2023-05-02T00:18:43;100301.13;;;8.68;71.37
65394;BME280;52002;49.760;6.512;2023-05-02T00:21:09;100303.31;;;8.65;71.42
65394;BME280;52002;49.760;6.512;2023-05-02T00:23:35;100306.85;;;8.60;71.35
65394;BME280;52002;49.760;6.512;2023-05-02T00:26:00;100304.60;;;8.53;71.63
65394;BME280;52002;49.760;6.512;2023-05-02T00:28:26;100309.58;;;8.48;71.63
65394;BME280;52002;49.760;6.512;2023-05-02T00:30:52;100308.10;;;8.43;71.71
65394;BME280;52002;49.760;6.512;2023-05-02T00:33:17;100306.86;;;8.39;71.96
65394;BME280;52002;49.760;6.512;2023-05-02T00:35:43;100308.27;;;8.33;71.98
65394;BME280;52002;49.760;6.512;2023-05-02T00:38:09;100308.66;;;8.36;72.26
65394;BME280;52002;49.760;6.512;2023-05-02T00:40:47;100314.89;;;8.38;72.33
65394;BME280;52002;49.760;6.512;2023-05-02T00:43:14;100309.52;;;8.38;72.10
65394;BME280;52002;49.760;6.512;2023-05-02T00:45:41;100312.92;;;8.36;72.18
65394;BME280;52002;49.760;6.512;2023-05-02T00:48:13;100308.71;;;8.32;72.01
65394;BME280;52002;49.760;6.512;2023-05-02T00:50:40;100314.02;;;8.28;72.07
65394;BME280;52002;49.760;6.512;2023-05-02T00:53:07;100310.11;;;8.21;71.95
65394;BME280;52002;49.760;6.512;2023-05-02T00:55:33;100310.61;;;8.17;72.07
65394;BME280;52002;49.760;6.512;2023-05-02T00:58:12;100306.69;;;8.17;72.47
65394;BME280;52002;49.760;6.512;2023-05-02T01:03:14;100305.52;;;8.16;72.31
65394;BME280;52002;49.760;6.512;2023-05-02T01:05:57;100307.31;;;8.15;72.59
65394;BME280;52002;49.760;6.512;2023-05-02T01:08:41;100311.80;;;8.17;72.78
65394;BME280;52002;49.760;6.512;2023-05-02T01:11:27;100314.58;;;8.18;72.89
65394;BME280;52002;49.760;6.512;2023-05-02T01:14:01;100312.24;;;8.20;72.80
65394;BME280;52002;49.760;6.512;2023-05-02T01:16:30;100317.88;;;8.14;72.56
65394;BME280;52002;49.760;6.512;2023-05-02T01:18:58;100313.37;;;8.05;72.47
65394;BME280;52002;49.760;6.512;2023-05-02T01:21:24;100317.89;;;8.02;72.69
65394;BME280;52002;49.760;6.512;2023-05-02T01:24:04;100317.51;;;8.02;72.54
65394;BME280;52002;49.760;6.512;2023-05-02T01:29:34;100316.45;;;7.99;72.92
65394;BME280;52002;49.760;6.512;2023-05-02T01:32:03;100318.63;;;8.03;72.78
65394;BME280;52002;49.760;6.512;2023-05-02T01:34:30;100322.39;;;8.05;72.69
65394;BME280;52002;49.760;6.512;2023-05-02T01:36:57;100329.27;;;8.06;72.76
65394;BME280;52002;49.760;6.512;2023-05-02T01:39:25;100330.83;;;8.06;73.04
65394;BME280;52002;49.760;6.512;2023-05-02T01:41:54;100339.84;;;8.12;73.22
65394;BME280;52002;49.760;6.512;2023-05-02T01:44:22;100344.61;;;8.17;73.17
65394;BME280;52002;49.760;6.512;2023-05-02T01:46:49;100345.06;;;8.23;73.23
65394;BME280;52002;49.760;6.512;2023-05-02T01:49:17;100345.66;;;8.29;73.24
65394;BME280;52002;49.760;6.512;2023-05-02T01:51:46;100350.41;;;8.35;72.91
65394;BME280;52002;49.760;6.512;2023-05-02T01:54:14;100346.33;;;8.40;73.17
65394;BME280;52002;49.760;6.512;2023-05-02T01:56:41;100350.85;;;8.43;73.21
65394;BME280;52002;49.760;6.512;2023-05-02T01:59:10;100357.97;;;8.48;73.33
65394;BME280;52002;49.760;6.512;2023-05-02T02:01:38;100361.36;;;8.52;73.41
65394;BME280;52002;49.760;6.512;2023-05-02T02:04:05;100367.44;;;8.56;73.34
65394;BME280;52002;49.760;6.512;2023-05-02T02:06:31;100369.02;;;8.59;73.60
65394;BME280;52002;49.760;6.512;2023-05-02T02:08:57;100376.90;;;8.63;73.46
65394;BME280;52002;49.760;6.512;2023-05-02T02:11:26;100385.11;;;8.70;73.51
65394;BME280;52002;49.760;6.512;2023-05-02T02:14:05;100384.90;;;8.75;73.35
65394;BME280;52002;49.760;6.512;2023-05-02T02:16:33;100386.15;;;8.79;73.44
65394;BME280;52002;49.760;6.512;2023-05-02T02:19:05;100387.69;;;8.83;73.32
65394;BME280;52002;49.760;6.512;2023-05-02T02:21:33;100395.14;;;8.83;73.29
65394;BME280;52002;49.760;6.512;2023-05-02T02:24:02;100404.04;;;8.80;73.18
65394;BME280;52002;49.760;6.512;2023-05-02T02:26:28;100403.89;;;8.80;73.58
65394;BME280;52002;49.760;6.512;2023-05-02T02:28:54;100409.49;;;8.83;73.51
65394;BME280;52002;49.760;6.512;2023-05-02T02:31:20;100410.94;;;8.85;73.61
65394;BME280;52002;49.760;6.512;2023-05-02T02:33:45;100406.61;;;8.88;73.55
65394;BME280;52002;49.760;6.512;2023-05-02T02:36:23;100410.45;;;8.89;73.33
65394;BME280;52002;49.760;6.512;2023-05-02T02:39:11;100418.86;;;8.86;73.45
65394;BME280;52002;49.760;6.512;2023-05-02T02:45:22;100425.45;;;8.78;73.25
65394;BME280;52002;49.760;6.512;2023-05-02T02:50:22;100433.55;;;8.72;73.78
65394;BME280;52002;49.760;6.512;2023-05-02T02:52:56;100433.09;;;8.74;73.84
65394;BME280;52002;49.760;6.512;2023-05-02T02:55:37;100430.11;;;8.76;73.91
65394;BME280;52002;49.760;6.512;2023-05-02T03:01:02;100430.45;;;8.83;73.80
65394;BME280;52002;49.760;6.512;2023-05-02T03:03:29;100432.13;;;8.84;73.64
65394;BME280;52002;49.760;6.512;2023-05-02T03:05:56;100433.86;;;8.82;73.56
65394;BME280;52002;49.760;6.512;2023-05-02T03:08:23;100440.13;;;8.79;73.58
65394;BME280;52002;49.760;6.512;2023-05-02T03:10:49;100440.01;;;8.76;73.77
65394;BME280;52002;49.760;6.512;2023-05-02T03:13:14;100437.61;;;8.75;73.76
65394;BME280;52002;49.760;6.512;2023-05-02T03:18:18;100450.93;;;8.73;73.58
65394;BME280;52002;49.760;6.512;2023-05-02T03:20:44;100454.71;;;8.72;73.58
65394;BME280;52002;49.760;6.512;2023-05-02T03:23:09;100458.48;;;8.71;73.74
65394;BME280;52002;49.760;6.512;2023-05-02T03:25:35;100456.71;;;8.71;73.64
65394;BME280;52002;49.760;6.512;2023-05-02T03:28:01;100457.96;;;8.71;73.83
65394;BME280;52002;49.760;6.512;2023-05-02T03:30:27;100459.29;;;8.68;73.60
65394;BME280;52002;49.760;6.512;2023-05-02T03:32:52;100458.52;;;8.66;73.73
65394;BME280;52002;49.760;6.512;2023-05-02T03:35:18;100454.80;;;8.61;73.55
65394;BME280;52002;49.760;6.512;2023-05-02T03:37:44;100456.05;;;8.58;73.58
65394;BME280;52002;49.760;6.512;2023-05-02T03:40:09;100460.58;;;8.59;73.87
65394;BME280;52002;49.760;6.512;2023-05-02T03:42:35;100465.92;;;8.57;73.78
65394;BME280;52002;49.760;6.512;2023-05-02T03:45:08;100459.86;;;8.57;74.30
65394;BME280;52002;49.760;6.512;2023-05-02T03:47:34;100459.44;;;8.58;73.94
65394;BME280;52002;49.760;6.512;2023-05-02T03:50:00;100457.04;;;8.57;74.02
65394;BME280;52002;49.760;6.512;2023-05-02T03:52:26;100464.33;;;8.56;73.87
65394;BME280;52002;49.760;6.512;2023-05-02T03:54:52;100466.68;;;8.54;73.91
65394;BME280;52002;49.760;6.512;2023-05-02T03:57:17;100468.04;;;8.54;74.10
65394;BME280;52002;49.760;6.512;2023-05-02T03:59:43;100469.34;;;8.58;74.11
65394;BME280;52002;49.760;6.512;2023-05-02T04:02:13;100463.71;;;8.55;73.82
65394;BME280;52002;49.760;6.512;2023-05-02T04:04:39;100462.00;;;8.50;73.83
65394;BME280;52002;49.760;6.512;2023-05-02T04:07:05;100466.02;;;8.50;74.15
65394;BME280;52002;49.760;6.512;2023-05-02T04:09:39;100467.34;;;8.54;74.30
65394;BME280;52002;49.760;6.512;2023-05-02T04:12:05;100461.67;;;8.56;74.15
65394;BME280;52002;49.760;6.512;2023-05-02T04:14:30;100461.00;;;8.54;74.11
65394;BME280;52002;49.760;6.512;2023-05-02T04:16:56;100460.45;;;8.54;74.17
65394;BME280;52002;49.760;6.512;2023-05-02T04:19:21;100464.13;;;8.57;74.05
65394;BME280;52002;49.760;6.512;2023-05-02T04:21:46;100465.35;;;8.57;74.21
65394;BME280;52002;49.760;6.512;2023-05-02T04:24:12;100467.48;;;8.59;74.06
65394;BME280;52002;49.760;6.512;2023-05-02T04:26:38;100467.86;;;8.61;74.19
65394;BME280;52002;49.760;6.512;2023-05-02T04:29:03;100470.44;;;8.65;74.19
65394;BME280;52002;49.760;6.512;2023-05-02T04:31:30;100474.69;;;8.65;74.19
65394;BME280;52002;49.760;6.512;2023-05-02T04:33:56;100476.05;;;8.66;73.91
65394;BME280;52002;49.760;6.512;2023-05-02T04:36:23;100475.85;;;8.64;74.00
65394;BME280;52002;49.760;6.512;2023-05-02T04:38:50;100475.86;;;8.64;74.04
65394;BME280;52002;49.760;6.512;2023-05-02T04:41:15;100478.92;;;8.66;73.99
65394;BME280;52002;49.760;6.512;2023-05-02T04:43:41;100481.36;;;8.69;73.91
65394;BME280;52002;49.760;6.512;2023-05-02T04:46:06;100484.49;;;8.70;73.86
65394;BME280;52002;49.760;6.512;2023-05-02T04:48:32;100489.09;;;8.73;74.02
65394;BME280;52002;49.760;6.512;2023-05-02T04:50:58;100496.27;;;8.76;73.90
65394;BME280;52002;49.760;6.512;2023-05-02T04:53:23;100494.15;;;8.81;73.83
65394;BME280;52002;49.760;6.512;2023-05-02T04:55:48;100501.27;;;8.83;73.94
65394;BME280;52002;49.760;6.512;2023-05-02T04:58:14;100505.92;;;8.87;73.81
65394;BME280;52002;49.760;6.512;2023-05-02T05:00:39;100510.19;;;8.92;73.80
65394;BME280;52002;49.760;6.512;2023-05-02T05:03:05;100519.59;;;8.98;73.76
65394;BME280;52002;49.760;6.512;2023-05-02T05:05:31;100525.16;;;9.04;73.55
65394;BME280;52002;49.760;6.512;2023-05-02T05:07:57;100522.35;;;9.03;73.41
65394;BME280;52002;49.760;6.512;2023-05-02T05:10:22;100523.83;;;9.03;73.31
65394;BME280;52002;49.760;6.512;2023-05-02T05:12:47;100528.25;;;9.03;73.38
65394;BME280;52002;49.760;6.512;2023-05-02T05:15:14;100533.45;;;9.05;73.32
65394;BME280;52002;49.760;6.512;2023-05-02T05:17:40;100534.45;;;9.03;73.26
65394;BME280;52002;49.760;6.512;2023-05-02T05:20:06;100534.84;;;9.00;73.37
65394;BME280;52002;49.760;6.512;2023-05-02T05:22:40;100536.98;;;9.05;73.66
65394;BME280;52002;49.760;6.512;2023-05-02T05:25:09;100540.30;;;9.10;73.36
65394;BME280;52002;49.760;6.512;2023-05-02T05:27:35;100547.58;;;9.13;73.36
65394;BME280;52002;49.760;6.512;2023-05-02T05:30:01;100555.20;;;9.18;73.36
65394;BME280;52002;49.760;6.512;2023-05-02T05:32:28;100560.39;;;9.22;73.31
65394;BME280;52002;49.760;6.512;2023-05-02T05:34:53;100563.46;;;9.26;73.41
65394;BME280;52002;49.760;6.512;2023-05-02T05:37:19;100567.92;;;9.31;73.28
65394;BME280;52002;49.760;6.512;2023-05-02T05:39:46;100570.12;;;9.35;73.23
65394;BME280;52002;49.760;6.512;2023-05-02T05:42:11;100574.84;;;9.33;72.83
65394;BME280;52002;49.760;6.512;2023-05-02T05:44:37;100579.84;;;9.35;73.14
65394;BME280;52002;49.760;6.512;2023-05-02T05:47:03;100587.55;;;9.44;73.19
65394;BME280;52002;49.760;6.512;2023-05-02T05:49:28;100593.85;;;9.50;73.08
65394;BME280;52002;49.760;6.512;2023-05-02T05:51:54;100598.91;;;9.56;72.80
65394;BME280;52002;49.760;6.512;2023-05-02T05:54:20;100605.61;;;9.62;72.77
65394;BME280;52002;49.760;6.512;2023-05-02T05:56:46;100604.54;;;9.64;72.58
65394;BME280;52002;49.760;6.512;2023-05-02T05:59:11;100603.61;;;9.65;72.54
65394;BME280;52002;49.760;6.512;2023-05-02T06:01:37;100605.52;;;9.70;72.54
65394;BME280;52002;49.760;6.512;2023-05-02T06:04:03;100606.77;;;9.77;72.50
65394;BME280;52002;49.760;6.512;2023-05-02T06:06:29;100604.64;;;9.81;72.37
65394;BME280;52002;49.760;6.512;2023-05-02T06:08:59;100609.90;;;9.87;72.19
65394;BME280;52002;49.760;6.512;2023-05-02T06:11:24;100613.27;;;9.97;72.41
65394;BME280;52002;49.760;6.512;2023-05-02T06:13:51;100612.19;;;10.04;71.97
65394;BME280;52002;49.760;6.512;2023-05-02T06:16:17;100614.09;;;10.07;71.82
65394;BME280;52002;49.760;6.512;2023-05-02T06:18:45;100610.76;;;10.11;71.68
65394;BME280;52002;49.760;6.512;2023-05-02T06:21:11;100610.67;;;10.14;71.69
65394;BME280;52002;49.760;6.512;2023-05-02T06:23:37;100615.85;;;10.19;71.60
65394;BME280;52002;49.760;6.512;2023-05-02T06:26:04;100617.61;;;10.30;71.68
65394;BME280;52002;49.760;6.512;2023-05-02T06:28:30;100614.85;;;10.43;71.51
65394;BME280;52002;49.760;6.512;2023-05-02T06:31:05;100616.61;;;10.58;71.16
65394;BME280;52002;49.760;6.512;2023-05-02T06:33:31;100618.79;;;10.68;70.98
65394;BME280;52002;49.760;6.512;2023-05-02T06:35:58;100619.92;;;10.79;70.76
65394;BME280;52002;49.760;6.512;2023-05-02T06:38:24;100621.86;;;10.92;70.81
65394;BME280;52002;49.760;6.512;2023-05-02T06:40:49;100625.04;;;11.04;70.39
65394;BME280;52002;49.760;6.512;2023-05-02T06:43:16;100630.17;;;11.09;70.22
65394;BME280;52002;49.760;6.512;2023-05-02T06:45:41;100635.88;;;11.18;70.08
65394;BME280;52002;49.760;6.512;2023-05-02T06:48:07;100635.77;;;11.19;69.79
65394;BME280;52002;49.760;6.512;2023-05-02T06:50:33;100639.27;;;11.22;69.91
65394;BME280;52002;49.760;6.512;2023-05-02T06:52:58;100638.20;;;11.22;69.75
65394;BME280;52002;49.760;6.512;2023-05-02T06:55:24;100639.98;;;11.22;69.90
65394;BME280;52002;49.760;6.512;2023-05-02T06:57:49;100644.08;;;11.22;69.71
65394;BME280;52002;49.760;6.512;2023-05-02T07:00:16;100643.29;;;11.23;69.65
65394;BME280;52002;49.760;6.512;2023-05-02T07:02:43;100646.92;;;11.26;69.76
65394;BME280;52002;49.760;6.512;2023-05-02T07:05:09;100646.95;;;11.32;69.69
65394;BME280;52002;49.760;6.512;2023-05-02T07:07:34;100650.20;;;11.36;69.62
65394;BME280;52002;49.760;6.512;2023-05-02T07:09:59;100648.10;;;11.43;69.84
65394;BME280;52002;49.760;6.512;2023-05-02T07:12:25;100651.53;;;11.51;69.66
65394;BME280;52002;49.760;6.512;2023-05-02T07:14:51;100659.17;;;11.66;69.60
65394;BME280;52002;49.760;6.512;2023-05-02T07:17:17;100661.33;;;11.83;69.19
65394;BME280;52002;49.760;6.512;2023-05-02T07:19:42;100663.79;;;12.01;68.90
65394;BME280;52002;49.760;6.512;2023-05-02T07:22:08;100662.11;;;12.15;68.58
65394;BME280;52002;49.760;6.512;2023-05-02T07:24:33;100664.60;;;12.25;68.39
65394;BME280;52002;49.760;6.512;2023-05-02T07:26:59;100665.64;;;12.43;68.22
65394;BME280;52002;49.760;6.512;2023-05-02T07:29:25;100665.64;;;12.63;68.15
65394;BME280;52002;49.760;6.512;2023-05-02T07:31:50;100666.05;;;12.86;67.88
65394;BME280;52002;49.760;6.512;2023-05-02T07:34:16;100665.65;;;13.33;67.30
65394;BME280;52002;49.760;6.512;2023-05-02T07:36:41;100664.39;;;14.19;65.96
65394;BME280;52002;49.760;6.512;2023-05-02T07:39:07;100665.27;;;14.78;64.93
65394;BME280;52002;49.760;6.512;2023-05-02T07:41:32;100659.44;;;15.39;63.90
65394;BME280;52002;49.760;6.512;2023-05-02T07:43:58;100657.84;;;16.04;62.40
65394;BME280;52002;49.760;6.512;2023-05-02T07:46:23;100659.86;;;16.79;61.06
65394;BME280;52002;49.760;6.512;2023-05-02T07:48:49;100669.25;;;17.82;59.47
65394;BME280;52002;49.760;6.512;2023-05-02T07:51:15;100670.52;;;19.86;56.65
65394;BME280;52002;49.760;6.512;2023-05-02T07:53:40;100672.62;;;23.51;52.05
65394;BME280;52002;49.760;6.512;2023-05-02T07:56:06;100679.06;;;26.67;47.43
65394;BME280;52002;49.760;6.512;2023-05-02T07:58:35;100678.19;;;29.15;43.08
65394;BME280;52002;49.760;6.512;2023-05-02T08:01:02;100683.99;;;31.11;39.05
65394;BME280;52002;49.760;6.512;2023-05-02T08:03:29;100682.83;;;32.69;36.66
65394;BME280;52002;49.760;6.512;2023-05-02T08:05:55;100681.42;;;33.70;34.98
65394;BME280;52002;49.760;6.512;2023-05-02T08:08:21;100678.88;;;34.46;33.19
65394;BME280;52002;49.760;6.512;2023-05-02T08:10:47;100680.11;;;34.83;31.86
65394;BME280;52002;49.760;6.512;2023-05-02T08:13:16;100679.81;;;34.73;30.23
65394;BME280;52002;49.760;6.512;2023-05-02T08:15:41;100677.06;;;33.11;30.33
65394;BME280;52002;49.760;6.512;2023-05-02T08:18:06;100674.68;;;32.32;30.83
65394;BME280;52002;49.760;6.512;2023-05-02T08:20:32;100684.19;;;31.42;30.63
65394;BME280;52002;49.760;6.512;2023-05-02T08:22:57;100680.52;;;29.81;30.76
65394;BME280;52002;49.760;6.512;2023-05-02T08:25:22;100679.94;;;27.82;32.68
65394;BME280;52002;49.760;6.512;2023-05-02T08:27:48;100679.17;;;26.34;34.04
65394;BME280;52002;49.760;6.512;2023-05-02T08:30:13;100678.11;;;25.60;35.03
65394;BME280;52002;49.760;6.512;2023-05-02T08:32:38;100675.13;;;24.93;35.43
65394;BME280;52002;49.760;6.512;2023-05-02T08:35:05;100679.16;;;24.34;36.55
65394;BME280;52002;49.760;6.512;2023-05-02T08:37:30;100677.27;;;24.00;37.00
65394;BME280;52002;49.760;6.512;2023-05-02T08:39:56;100677.42;;;23.62;37.88
65394;BME280;52002;49.760;6.512;2023-05-02T08:42:22;100681.64;;;23.26;38.80
65394;BME280;52002;49.760;6.512;2023-05-02T08:44:48;100684.20;;;23.03;39.05
65394;BME280;52002;49.760;6.512;2023-05-02T08:47:14;100680.69;;;23.03;39.56
65394;BME280;52002;49.760;6.512;2023-05-02T08:49:40;100678.56;;;22.97;39.56
65394;BME280;52002;49.760;6.512;2023-05-02T08:52:07;100687.92;;;22.83;39.79
65394;BME280;52002;49.760;6.512;2023-05-02T08:54:37;100686.39;;;22.42;39.75
65394;BME280;52002;49.760;6.512;2023-05-02T08:57:04;100682.38;;;21.87;40.17
65394;BME280;52002;49.760;6.512;2023-05-02T08:59:29;100688.36;;;21.30;40.59
65394;BME280;52002;49.760;6.512;2023-05-02T09:02:00;100687.20;;;20.52;41.48
65394;BME280;52002;49.760;6.512;2023-05-02T09:04:30;100688.65;;;19.67;42.67
65394;BME280;52002;49.760;6.512;2023-05-02T09:06:57;100689.59;;;19.05;43.72
65394;BME280;52002;49.760;6.512;2023-05-02T09:09:23;100692.43;;;18.72;44.69
65394;BME280;52002;49.760;6.512;2023-05-02T09:11:50;100695.58;;;18.79;44.86
65394;BME280;52002;49.760;6.512;2023-05-02T09:14:16;100691.27;;;18.95;44.88
65394;BME280;52002;49.760;6.512;2023-05-02T09:16:42;100694.17;;;19.14;45.34
65394;BME280;52002;49.760;6.512;2023-05-02T09:19:08;100682.20;;;19.26;45.92
65394;BME280;52002;49.760;6.512;2023-05-02T09:21:36;100689.73;;;19.46;45.82
65394;BME280;52002;49.760;6.512;2023-05-02T09:24:16;100689.66;;;19.60;45.28
65394;BME280;52002;49.760;6.512;2023-05-02T09:26:56;100689.38;;;19.37;45.05
65394;BME280;52002;49.760;6.512;2023-05-02T09:29:22;100694.58;;;19.21;44.90
65394;BME280;52002;49.760;6.512;2023-05-02T09:31:48;100697.86;;;19.26;44.46
65394;BME280;52002;49.760;6.512;2023-05-02T09:34:17;100696.64;;;19.27;44.33
65394;BME280;52002;49.760;6.512;2023-05-02T09:36:47;100698.22;;;19.15;44.99
65394;BME280;52002;49.760;6.512;2023-05-02T09:39:16;100704.14;;;19.07;45.08
65394;BME280;52002;49.760;6.512;2023-05-02T09:41:44;100707.56;;;18.89;45.23
65394;BME280;52002;49.760;6.512;2023-05-02T09:44:15;100702.41;;;19.02;45.53
65394;BME280;52002;49.760;6.512;2023-05-02T09:49:12;100703.92;;;19.20;45.32
65394;BME280;52002;49.760;6.512;2023-05-02T09:51:47;100703.24;;;19.28;45.04
65394;BME280;52002;49.760;6.512;2023-05-02T09:54:34;100705.79;;;19.31;45.08
65394;BME280;52002;49.760;6.512;2023-05-02T09:57:00;100699.89;;;19.32;45.28
65394;BME280;52002;49.760;6.512;2023-05-02T09:59:26;100703.30;;;19.42;44.77
65394;BME280;52002;49.760;6.512;2023-05-02T10:01:59;100702.58;;;19.45;44.36
65394;BME280;52002;49.760;6.512;2023-05-02T10:04:26;100708.01;;;19.27;44.52
65394;BME280;52002;49.760;6.512;2023-05-02T10:06:53;100711.27;;;19.03;44.89
65394;BME280;52002;49.760;6.512;2023-05-02T10:09:22;100712.07;;;18.73;45.32
65394;BME280;52002;49.760;6.512;2023-05-02T10:11:51;100716.34;;;18.30;45.58
65394;BME280;52002;49.760;6.512;2023-05-02T10:14:19;100716.79;;;17.91;46.40
65394;BME280;52002;49.760;6.512;2023-05-02T10:17:11;100710.55;;;17.70;47.22
65394;BME280;52002;49.760;6.512;2023-05-02T10:19:56;100712.28;;;17.57;47.49
65394;BME280;52002;49.760;6.512;2023-05-02T10:22:25;100712.15;;;17.50;47.47
65394;BME280;52002;49.760;6.512;2023-05-02T10:24:52;100713.21;;;17.52;47.59
65394;BME280;52002;49.760;6.512;2023-05-02T10:27:18;100716.23;;;17.61;47.52
65394;BME280;52002;49.760;6.512;2023-05-02T10:29:45;100715.01;;;17.74;47.89
65394;BME280;52002;49.760;6.512;2023-05-02T10:32:12;100719.42;;;17.98;48.28
65394;BME280;52002;49.760;6.512;2023-05-02T10:34:40;100717.09;;;18.15;48.07
65394;BME280;52002;49.760;6.512;2023-05-02T10:37:06;100716.58;;;18.26;47.60
65394;BME280;52002;49.760;6.512;2023-05-02T10:39:31;100715.54;;;18.47;46.60
65394;BME280;52002;49.760;6.512;2023-05-02T10:41:58;100714.83;;;18.58;46.30
65394;BME280;52002;49.760;6.512;2023-05-02T10:44:36;100719.11;;;18.55;46.01
65394;BME280;52002;49.760;6.512;2023-05-02T10:47:22;100714.33;;;18.42;46.06
65394;BME280;52002;49.760;6.512;2023-05-02T10:50:08;100714.84;;;18.37;46.37
65394;BME280;52002;49.760;6.512;2023-05-02T10:52:35;100719.40;;;18.43;46.35
65394;BME280;52002;49.760;6.512;2023-05-02T10:55:22;100713.08;;;18.45;45.98
65394;BME280;52002;49.760;6.512;2023-05-02T11:02:51;100704.08;;;18.33;46.03
65394;BME280;52002;49.760;6.512;2023-05-02T11:05:17;100706.05;;;18.43;46.14
65394;BME280;52002;49.760;6.512;2023-05-02T11:07:43;100710.33;;;18.57;45.89
65394;BME280;52002;49.760;6.512;2023-05-02T11:18:12;100710.58;;;18.77;45.57
65394;BME280;52002;49.760;6.512;2023-05-02T11:20:39;100712.41;;;18.74;45.63
65394;BME280;52002;49.760;6.512;2023-05-02T11:25:54;100722.14;;;18.06;46.83
65394;BME280;52002;49.760;6.512;2023-05-02T11:31:03;100725.92;;;17.08;51.22
65394;BME280;52002;49.760;6.512;2023-05-02T11:33:28;100725.55;;;16.70;53.09
65394;BME280;52002;49.760;6.512;2023-05-02T11:35:54;100723.93;;;16.36;54.13
65394;BME280;52002;49.760;6.512;2023-05-02T11:38:24;100721.89;;;16.21;54.35
65394;BME280;52002;49.760;6.512;2023-05-02T11:43:20;100719.80;;;16.29;55.75
65394;BME280;52002;49.760;6.512;2023-05-02T11:45:46;100724.64;;;16.50;55.68
65394;BME280;52002;49.760;6.512;2023-05-02T11:48:15;100720.48;;;16.79;56.25
65394;BME280;52002;49.760;6.512;2023-05-02T11:50:43;100719.05;;;17.07;55.97
65394;BME280;52002;49.760;6.512;2023-05-02T11:53:10;100716.08;;;17.28;55.57
65394;BME280;52002;49.760;6.512;2023-05-02T11:55:36;100717.21;;;17.53;55.00
65394;BME280;52002;49.760;6.512;2023-05-02T11:58:02;100715.04;;;17.73;54.38
65394;BME280;52002;49.760;6.512;2023-05-02T12:00:27;100717.29;;;17.91;54.27
65394;BME280;52002;49.760;6.512;2023-05-02T12:02:53;100721.68;;;18.06;53.64
65394;BME280;52002;49.760;6.512;2023-05-02T12:05:27;100722.55;;;18.31;52.81
65394;BME280;52002;49.760;6.512;2023-05-02T12:07:56;100723.84;;;18.57;52.08
65394;BME280;52002;49.760;6.512;2023-05-02T12:10:22;100732.14;;;18.68;52.42
65394;BME280;52002;49.760;6.512;2023-05-02T12:12:47;100734.48;;;18.70;52.30
65394;BME280;52002;49.760;6.512;2023-05-02T12:15:13;100740.22;;;18.57;53.04
65394;BME280;52002;49.760;6.512;2023-05-02T12:17:44;100741.26;;;18.39;54.05
65394;BME280;52002;49.760;6.512;2023-05-02T12:20:10;100742.70;;;18.21;53.96
65394;BME280;52002;49.760;6.512;2023-05-02T12:22:36;100739.59;;;18.05;53.60
65394;BME280;52002;49.760;6.512;2023-05-02T12:25:03;100742.73;;;17.99;53.92
65394;BME280;52002;49.760;6.512;2023-05-02T12:27:30;100740.97;;;18.02;54.64
65394;BME280;52002;49.760;6.512;2023-05-02T12:29:57;100739.20;;;18.09;55.39
65394;BME280;52002;49.760;6.512;2023-05-02T12:32:30;100739.00;;;18.11;55.70
65394;BME280;52002;49.760;6.512;2023-05-02T12:34:57;100738.93;;;18.02;56.00
65394;BME280;52002;49.760;6.512;2023-05-02T12:37:24;100733.83;;;17.90;55.91
65394;BME280;52002;49.760;6.512;2023-05-02T12:39:51;100731.48;;;17.73;56.10
65394;BME280;52002;49.760;6.512;2023-05-02T12:42:19;100729.63;;;17.58;56.30
65394;BME280;52002;49.760;6.512;2023-05-02T12:44:46;100730.90;;;17.46;56.52
65394;BME280;52002;49.760;6.512;2023-05-02T12:47:14;100725.49;;;17.33;56.20
65394;BME280;52002;49.760;6.512;2023-05-02T12:49:57;100728.49;;;17.25;56.83
65394;BME280;52002;49.760;6.512;2023-05-02T12:55:17;100730.77;;;17.17;57.26
65394;BME280;52002;49.760;6.512;2023-05-02T12:57:42;100731.02;;;17.20;57.47
65394;BME280;52002;49.760;6.512;2023-05-02T13:00:08;100728.65;;;17.27;57.39
65394;BME280;52002;49.760;6.512;2023-05-02T13:02:34;100730.67;;;17.50;57.30
65394;BME280;52002;49.760;6.512;2023-05-02T13:04:59;100732.20;;;17.69;56.77
65394;BME280;52002;49.760;6.512;2023-05-02T13:07:25;100730.67;;;17.94;56.50
65394;BME280;52002;49.760;6.512;2023-05-02T13:09:50;100732.14;;;18.17;55.77
65394;BME280;52002;49.760;6.512;2023-05-02T13:12:15;100735.03;;;18.24;55.11
65394;BME280;52002;49.760;6.512;2023-05-02T13:14:42;100738.60;;;18.32;55.00
65394;BME280;52002;49.760;6.512;2023-05-02T13:17:08;100735.90;;;18.39;55.30
65394;BME280;52002;49.760;6.512;2023-05-02T13:19:34;100735.02;;;18.44;54.85
65394;BME280;52002;49.760;6.512;2023-05-02T13:21:59;100738.02;;;18.51;54.24
65394;BME280;52002;49.760;6.512;2023-05-02T13:24:24;100736.65;;;18.57;54.50
65394;BME280;52002;49.760;6.512;2023-05-02T13:26:50;100734.22;;;18.57;53.88
65394;BME280;52002;49.760;6.512;2023-05-02T13:29:15;100738.17;;;18.56;54.48
65394;BME280;52002;49.760;6.512;2023-05-02T13:31:41;100737.23;;;18.50;54.87
65394;BME280;52002;49.760;6.512;2023-05-02T13:34:07;100733.63;;;18.38;54.77
65394;BME280;52002;49.760;6.512;2023-05-02T13:36:32;100728.13;;;18.19;54.89
65394;BME280;52002;49.760;6.512;2023-05-02T13:38:57;100728.33;;;17.99;54.70
65394;BME280;52002;49.760;6.512;2023-05-02T13:41:23;100726.30;;;17.89;54.72